HISTORICAL SENSOR DATA

Sensor Data Report

DB LIVE
CURRENT TIME--:--:--
DEVICE NETWORK Gateway Status
13 ESP · realtime ~1s · history 60s
Weather WS-MOD-01
ONLINE
Actuator ACT-MOD-01
OFFLINE
Mainboard L3 MB-L3-01
ONLINE
Mainboard L5 MB-L5-01
ONLINE
Remote AC AC-REMOTE-01
ONLINE
PZEM L3-01 PWR-L3-01
OFFLINE
PZEM L3-02 PWR-L3-02
OFFLINE
PZEM L3-03 PWR-L3-03
OFFLINE
PZEM L3-04 PWR-L3-04
OFFLINE
PZEM L5-01 PWR-L5-01
ONLINE
PZEM L5-02 PWR-L5-02
ONLINE
PZEM L5-03 PWR-L5-03
OFFLINE
PZEM L5-04 PWR-L5-04
OFFLINE
REPORT FILTER

Periode & Sensor

DATABASE HISTORY
RESET
QUICK RANGE Hari ini 7 hari 30 hari
PERIODE31 Aug 2026sampai 06 Sep 2026
TOTAL DATA54,630sensor readings
MINIMUM-0.50sesuai filter
AVERAGE96.48sesuai filter
MAXIMUM32,564.20sesuai filter
REPORT RESULT

Data Sensor

31/08/2026 — 06/09/2026 EXPORT CSV
NOTANGGALWAKTUDEVICECHANNELSENSORVALUEUNIT
12401 06/09/2026 13:59:00 MB-L5-01Mainboard Lantai 5 L5-LUX-05 Illuminance / LUX 5 24,792.70 lux
12402 06/09/2026 13:59:00 MB-L3-01Mainboard Lantai 3 L3-ST-01 Surface Temperature 1 29.50 °C
12403 06/09/2026 13:59:00 MB-L5-01Mainboard Lantai 5 L5-LUX-03 Illuminance / LUX 3 1,205.00 lux
12404 06/09/2026 13:59:00 WS-MOD-01Weather Station Module WS-TEMP Suhu Udara 30.70 °C
12405 06/09/2026 13:59:00 WS-MOD-01Weather Station Module WS-DIR Arah Angin 118.50 °
12406 06/09/2026 13:59:00 MB-L5-01Mainboard Lantai 5 L5-RAD-01 Radiation 1 5.00 W/m²
12407 06/09/2026 13:59:00 MB-L5-01Mainboard Lantai 5 L5-HFT-02 Heat Flow Temperature 2 31.10 °C
12408 06/09/2026 13:59:00 MB-L5-01Mainboard Lantai 5 L5-SHT-02-RH SHT20 2 Humidity 30.70 %RH
12409 06/09/2026 13:59:00 MB-L5-01Mainboard Lantai 5 L5-SHT-02-T SHT20 2 Temperature 32.00 °C
12410 06/09/2026 13:59:00 MB-L5-01Mainboard Lantai 5 L5-SHT-01-RH SHT20 1 Humidity 30.00 %RH
12411 06/09/2026 13:59:00 MB-L3-01Mainboard Lantai 3 L3-BGT-01 Black Globe Temperature 1 29.20 °C
12412 06/09/2026 13:59:00 MB-L5-01Mainboard Lantai 5 L5-LUX-02 Illuminance / LUX 2 2,877.40 lux
12413 06/09/2026 13:59:00 MB-L5-01Mainboard Lantai 5 L5-BGT-01 Black Globe Temperature 1 30.90 °C
12414 06/09/2026 13:59:00 MB-L5-01Mainboard Lantai 5 L5-AI-04 Analog Input 4 3.05 V
12415 06/09/2026 13:59:00 MB-L3-01Mainboard Lantai 3 L3-AI-04 Analog Input 4 3.12 V
12416 06/09/2026 13:59:00 WS-MOD-01Weather Station Module WS-PRES Tekanan Udara 908.00 hPa
12417 06/09/2026 13:59:00 MB-L3-01Mainboard Lantai 3 L3-AI-01 Analog Input 1 3.12 V
12418 06/09/2026 13:59:00 MB-L3-01Mainboard Lantai 3 L3-HFT-02 Heat Flow Temperature 2 29.40 °C
12419 06/09/2026 13:59:00 MB-L5-01Mainboard Lantai 5 L5-ST-01 Surface Temperature 1 33.60 °C
12420 06/09/2026 13:59:00 MB-L5-01Mainboard Lantai 5 L5-AI-01 Analog Input 1 3.05 V
12421 06/09/2026 13:59:00 MB-L5-01Mainboard Lantai 5 L5-SHT-01-T SHT20 1 Temperature 32.90 °C
12422 06/09/2026 13:59:00 WS-MOD-01Weather Station Module WS-WIND Kecepatan Angin 2.39 m/s
12423 06/09/2026 13:59:00 MB-L5-01Mainboard Lantai 5 L5-BGT-02 Black Globe Temperature 2 30.60 °C
12424 06/09/2026 13:59:00 MB-L5-01Mainboard Lantai 5 L5-AI-05 Analog Input 5 3.05 V
12425 06/09/2026 13:59:00 MB-L5-01Mainboard Lantai 5 L5-LUX-01 Illuminance / LUX 1 667.90 lux
12426 06/09/2026 13:59:00 MB-L5-01Mainboard Lantai 5 L5-ST-02 Surface Temperature 2 34.20 °C
12427 06/09/2026 13:59:00 MB-L3-01Mainboard Lantai 3 L3-HFT-01 Heat Flow Temperature 1 29.40 °C
12428 06/09/2026 13:59:00 MB-L3-01Mainboard Lantai 3 L3-AI-05 Analog Input 5 3.12 V
12429 06/09/2026 13:59:00 MB-L3-01Mainboard Lantai 3 L3-AI-02 Analog Input 2 3.12 V
12430 06/09/2026 13:59:00 MB-L5-01Mainboard Lantai 5 L5-AI-02 Analog Input 2 3.05 V
12431 06/09/2026 13:59:00 MB-L3-01Mainboard Lantai 3 L3-BGT-03 Black Globe Temperature 3 29.00 °C
12432 06/09/2026 13:59:00 WS-MOD-01Weather Station Module WS-RH Kelembapan Udara 35.50 %RH
12433 06/09/2026 13:59:00 MB-L5-01Mainboard Lantai 5 L5-BGT-03 Black Globe Temperature 3 30.70 °C
12434 06/09/2026 13:58:00 MB-L5-01Mainboard Lantai 5 L5-SHT-03-T SHT20 3 Temperature 32.20 °C
12435 06/09/2026 13:58:00 MB-L5-01Mainboard Lantai 5 L5-LUX-05 Illuminance / LUX 5 22,894.50 lux
12436 06/09/2026 13:58:00 MB-L3-01Mainboard Lantai 3 L3-ST-01 Surface Temperature 1 29.20 °C
12437 06/09/2026 13:58:00 MB-L5-01Mainboard Lantai 5 L5-LUX-03 Illuminance / LUX 3 1,198.50 lux
12438 06/09/2026 13:58:00 WS-MOD-01Weather Station Module WS-TEMP Suhu Udara 29.80 °C
12439 06/09/2026 13:58:00 WS-MOD-01Weather Station Module WS-DIR Arah Angin 97.30 °
12440 06/09/2026 13:58:00 MB-L5-01Mainboard Lantai 5 L5-RAD-01 Radiation 1 5.00 W/m²
12441 06/09/2026 13:58:00 MB-L5-01Mainboard Lantai 5 L5-HFT-02 Heat Flow Temperature 2 31.00 °C
12442 06/09/2026 13:58:00 MB-L5-01Mainboard Lantai 5 L5-SHT-02-RH SHT20 2 Humidity 31.10 %RH
12443 06/09/2026 13:58:00 MB-L5-01Mainboard Lantai 5 L5-SHT-02-T SHT20 2 Temperature 32.00 °C
12444 06/09/2026 13:58:00 MB-L5-01Mainboard Lantai 5 L5-SHT-01-RH SHT20 1 Humidity 30.60 %RH
12445 06/09/2026 13:58:00 MB-L3-01Mainboard Lantai 3 L3-BGT-01 Black Globe Temperature 1 29.10 °C
12446 06/09/2026 13:58:00 MB-L5-01Mainboard Lantai 5 L5-LUX-02 Illuminance / LUX 2 2,867.40 lux
12447 06/09/2026 13:58:00 MB-L5-01Mainboard Lantai 5 L5-BGT-01 Black Globe Temperature 1 30.90 °C
12448 06/09/2026 13:58:00 MB-L5-01Mainboard Lantai 5 L5-AI-04 Analog Input 4 3.05 V
12449 06/09/2026 13:58:00 MB-L3-01Mainboard Lantai 3 L3-AI-04 Analog Input 4 3.12 V
12450 06/09/2026 13:58:00 WS-MOD-01Weather Station Module WS-PRES Tekanan Udara 908.00 hPa
12451 06/09/2026 13:58:00 MB-L3-01Mainboard Lantai 3 L3-AI-01 Analog Input 1 3.12 V
12452 06/09/2026 13:58:00 MB-L3-01Mainboard Lantai 3 L3-HFT-02 Heat Flow Temperature 2 29.10 °C
12453 06/09/2026 13:58:00 MB-L5-01Mainboard Lantai 5 L5-ST-01 Surface Temperature 1 32.60 °C
12454 06/09/2026 13:58:00 MB-L5-01Mainboard Lantai 5 L5-AI-01 Analog Input 1 3.05 V
12455 06/09/2026 13:58:00 MB-L5-01Mainboard Lantai 5 L5-SHT-01-T SHT20 1 Temperature 32.70 °C
12456 06/09/2026 13:58:00 WS-MOD-01Weather Station Module WS-WIND Kecepatan Angin 2.63 m/s
12457 06/09/2026 13:58:00 MB-L5-01Mainboard Lantai 5 L5-BGT-02 Black Globe Temperature 2 30.30 °C
12458 06/09/2026 13:58:00 MB-L5-01Mainboard Lantai 5 L5-AI-05 Analog Input 5 3.05 V
12459 06/09/2026 13:58:00 MB-L5-01Mainboard Lantai 5 L5-LUX-01 Illuminance / LUX 1 666.10 lux
12460 06/09/2026 13:58:00 MB-L5-01Mainboard Lantai 5 L5-ST-02 Surface Temperature 2 34.20 °C
12461 06/09/2026 13:58:00 MB-L3-01Mainboard Lantai 3 L3-HFT-01 Heat Flow Temperature 1 29.30 °C
12462 06/09/2026 13:58:00 MB-L3-01Mainboard Lantai 3 L3-AI-05 Analog Input 5 3.12 V
12463 06/09/2026 13:58:00 MB-L3-01Mainboard Lantai 3 L3-AI-02 Analog Input 2 3.12 V
12464 06/09/2026 13:58:00 MB-L5-01Mainboard Lantai 5 L5-AI-02 Analog Input 2 3.05 V
12465 06/09/2026 13:58:00 MB-L3-01Mainboard Lantai 3 L3-BGT-03 Black Globe Temperature 3 28.90 °C
12466 06/09/2026 13:58:00 WS-MOD-01Weather Station Module WS-RH Kelembapan Udara 36.70 %RH
12467 06/09/2026 13:58:00 MB-L5-01Mainboard Lantai 5 L5-BGT-03 Black Globe Temperature 3 30.40 °C
12468 06/09/2026 13:58:00 MB-L5-01Mainboard Lantai 5 L5-AI-06 Analog Input 6 3.05 V
12469 06/09/2026 13:58:00 MB-L3-01Mainboard Lantai 3 L3-ST-02 Surface Temperature 2 29.40 °C
12470 06/09/2026 13:58:00 MB-L5-01Mainboard Lantai 5 L5-LUX-06 Illuminance / LUX 6 1,239.00 lux
12471 06/09/2026 13:58:00 MB-L5-01Mainboard Lantai 5 L5-HFT-01 Heat Flow Temperature 1 34.30 °C
12472 06/09/2026 13:58:00 MB-L5-01Mainboard Lantai 5 L5-LUX-04 Illuminance / LUX 4 837.10 lux
12473 06/09/2026 13:58:00 MB-L5-01Mainboard Lantai 5 L5-SHT-03-RH SHT20 3 Humidity 30.50 %RH
12474 06/09/2026 13:58:00 MB-L3-01Mainboard Lantai 3 L3-AI-06 Analog Input 6 3.12 V
12475 06/09/2026 13:58:00 MB-L3-01Mainboard Lantai 3 L3-BGT-02 Black Globe Temperature 2 29.10 °C
12476 06/09/2026 13:58:00 MB-L5-01Mainboard Lantai 5 L5-RAD-02 Radiation 2 4.00 W/m²
12477 06/09/2026 13:58:00 MB-L5-01Mainboard Lantai 5 L5-AI-03 Analog Input 3 3.05 V
12478 06/09/2026 13:58:00 MB-L3-01Mainboard Lantai 3 L3-AI-03 Analog Input 3 3.12 V
12479 06/09/2026 13:57:00 MB-L5-01Mainboard Lantai 5 L5-AI-04 Analog Input 4 3.05 V
12480 06/09/2026 13:57:00 WS-MOD-01Weather Station Module WS-PRES Tekanan Udara 908.00 hPa
12481 06/09/2026 13:57:00 MB-L5-01Mainboard Lantai 5 L5-ST-01 Surface Temperature 1 32.80 °C
12482 06/09/2026 13:57:00 MB-L5-01Mainboard Lantai 5 L5-AI-01 Analog Input 1 3.05 V
12483 06/09/2026 13:57:00 MB-L5-01Mainboard Lantai 5 L5-SHT-01-T SHT20 1 Temperature 32.70 °C
12484 06/09/2026 13:57:00 WS-MOD-01Weather Station Module WS-WIND Kecepatan Angin 6.36 m/s
12485 06/09/2026 13:57:00 MB-L5-01Mainboard Lantai 5 L5-BGT-02 Black Globe Temperature 2 30.00 °C
12486 06/09/2026 13:57:00 MB-L5-01Mainboard Lantai 5 L5-AI-05 Analog Input 5 3.05 V
12487 06/09/2026 13:57:00 MB-L5-01Mainboard Lantai 5 L5-LUX-01 Illuminance / LUX 1 654.70 lux
12488 06/09/2026 13:57:00 MB-L5-01Mainboard Lantai 5 L5-ST-02 Surface Temperature 2 34.10 °C
12489 06/09/2026 13:57:00 MB-L5-01Mainboard Lantai 5 L5-AI-02 Analog Input 2 3.05 V
12490 06/09/2026 13:57:00 WS-MOD-01Weather Station Module WS-RH Kelembapan Udara 34.20 %RH
12491 06/09/2026 13:57:00 MB-L5-01Mainboard Lantai 5 L5-BGT-03 Black Globe Temperature 3 30.20 °C
12492 06/09/2026 13:57:00 MB-L5-01Mainboard Lantai 5 L5-AI-06 Analog Input 6 3.05 V
12493 06/09/2026 13:57:00 MB-L5-01Mainboard Lantai 5 L5-LUX-06 Illuminance / LUX 6 1,184.60 lux
12494 06/09/2026 13:57:00 MB-L5-01Mainboard Lantai 5 L5-HFT-01 Heat Flow Temperature 1 34.10 °C
12495 06/09/2026 13:57:00 MB-L5-01Mainboard Lantai 5 L5-LUX-04 Illuminance / LUX 4 805.30 lux
12496 06/09/2026 13:57:00 MB-L5-01Mainboard Lantai 5 L5-SHT-03-RH SHT20 3 Humidity 30.90 %RH
12497 06/09/2026 13:57:00 MB-L5-01Mainboard Lantai 5 L5-RAD-02 Radiation 2 4.00 W/m²
12498 06/09/2026 13:57:00 MB-L5-01Mainboard Lantai 5 L5-AI-03 Analog Input 3 3.05 V
12499 06/09/2026 13:57:00 MB-L5-01Mainboard Lantai 5 L5-SHT-03-T SHT20 3 Temperature 32.20 °C
12500 06/09/2026 13:57:00 MB-L5-01Mainboard Lantai 5 L5-LUX-05 Illuminance / LUX 5 21,405.70 lux
Menampilkan maksimal 100 data per halaman